sensor_id;sensor_type;location;lat;lon;timestamp;temperature;humidity
52656;SHT85;35474;51.032;6.998;2023-04-01T00:00:34;11.20;77.69
52656;SHT85;35474;51.032;6.998;2023-04-01T00:03:01;11.16;77.70
52656;SHT85;35474;51.032;6.998;2023-04-01T00:05:28;11.23;77.93
52656;SHT85;35474;51.032;6.998;2023-04-01T00:07:54;11.20;78.11
52656;SHT85;35474;51.032;6.998;2023-04-01T00:10:21;11.18;78.22
52656;SHT85;35474;51.032;6.998;2023-04-01T00:12:48;11.20;78.04
52656;SHT85;35474;51.032;6.998;2023-04-01T00:15:14;11.14;78.48
52656;SHT85;35474;51.032;6.998;2023-04-01T00:17:41;11.31;77.02
52656;SHT85;35474;51.032;6.998;2023-04-01T00:20:08;11.34;76.84
52656;SHT85;35474;51.032;6.998;2023-04-01T00:22:35;11.34;77.18
52656;SHT85;35474;51.032;6.998;2023-04-01T00:25:03;11.23;77.36
52656;SHT85;35474;51.032;6.998;2023-04-01T00:27:30;11.26;77.23
52656;SHT85;35474;51.032;6.998;2023-04-01T00:29:56;11.31;76.99
52656;SHT85;35474;51.032;6.998;2023-04-01T00:32:23;11.31;76.46
52656;SHT85;35474;51.032;6.998;2023-04-01T00:34:50;11.23;77.32
52656;SHT85;35474;51.032;6.998;2023-04-01T00:37:17;11.21;77.77
52656;SHT85;35474;51.032;6.998;2023-04-01T00:39:44;11.18;77.60
52656;SHT85;35474;51.032;6.998;2023-04-01T00:42:12;11.27;77.55
52656;SHT85;35474;51.032;6.998;2023-04-01T00:44:40;11.34;76.99
52656;SHT85;35474;51.032;6.998;2023-04-01T00:47:07;11.30;76.71
52656;SHT85;35474;51.032;6.998;2023-04-01T00:49:35;11.28;77.15
52656;SHT85;35474;51.032;6.998;2023-04-01T00:52:06;11.32;77.12
52656;SHT85;35474;51.032;6.998;2023-04-01T00:54:36;11.35;77.14
52656;SHT85;35474;51.032;6.998;2023-04-01T00:57:15;11.31;76.99
52656;SHT85;35474;51.032;6.998;2023-04-01T00:59:46;11.28;76.99
52656;SHT85;35474;51.032;6.998;2023-04-01T01:02:15;11.32;77.35
52656;SHT85;35474;51.032;6.998;2023-04-01T01:04:43;11.28;76.99
52656;SHT85;35474;51.032;6.998;2023-04-01T01:07:18;11.30;77.20
52656;SHT85;35474;51.032;6.998;2023-04-01T01:12:53;11.08;78.23
52656;SHT85;35474;51.032;6.998;2023-04-01T01:15:50;11.13;77.56
52656;SHT85;35474;51.032;6.998;2023-04-01T01:24:28;10.97;79.23
52656;SHT85;35474;51.032;6.998;2023-04-01T01:37:45;11.03;79.30
52656;SHT85;35474;51.032;6.998;2023-04-01T01:40:16;11.14;78.82
52656;SHT85;35474;51.032;6.998;2023-04-01T01:42:45;11.17;78.15
52656;SHT85;35474;51.032;6.998;2023-04-01T01:45:22;11.20;78.29
52656;SHT85;35474;51.032;6.998;2023-04-01T01:47:51;11.17;78.23
52656;SHT85;35474;51.032;6.998;2023-04-01T01:50:18;11.00;79.10
52656;SHT85;35474;51.032;6.998;2023-04-01T01:52:47;10.99;79.89
52656;SHT85;35474;51.032;6.998;2023-04-01T01:55:31;10.90;80.32
52656;SHT85;35474;51.032;6.998;2023-04-01T01:58:10;10.76;81.27
52656;SHT85;35474;51.032;6.998;2023-04-01T02:00:42;10.79;81.47
52656;SHT85;35474;51.032;6.998;2023-04-01T02:03:13;10.65;82.69
52656;SHT85;35474;51.032;6.998;2023-04-01T02:05:41;10.70;82.13
52656;SHT85;35474;51.032;6.998;2023-04-01T02:08:17;10.65;82.03
52656;SHT85;35474;51.032;6.998;2023-04-01T02:11:07;10.59;82.68
52656;SHT85;35474;51.032;6.998;2023-04-01T02:14:01;10.41;83.07
52656;SHT85;35474;51.032;6.998;2023-04-01T02:16:45;10.45;83.79
52656;SHT85;35474;51.032;6.998;2023-04-01T02:19:18;10.46;83.26
52656;SHT85;35474;51.032;6.998;2023-04-01T02:21:53;10.39;83.10
52656;SHT85;35474;51.032;6.998;2023-04-01T02:24:23;10.29;83.54
52656;SHT85;35474;51.032;6.998;2023-04-01T02:26:54;10.18;84.58
52656;SHT85;35474;51.032;6.998;2023-04-01T02:29:21;10.14;85.81
52656;SHT85;35474;51.032;6.998;2023-04-01T02:31:51;10.07;85.92
52656;SHT85;35474;51.032;6.998;2023-04-01T02:34:19;9.95;86.79
52656;SHT85;35474;51.032;6.998;2023-04-01T02:36:47;9.97;86.03
52656;SHT85;35474;51.032;6.998;2023-04-01T02:39:15;9.84;87.66
52656;SHT85;35474;51.032;6.998;2023-04-01T02:41:43;9.74;88.63
52656;SHT85;35474;51.032;6.998;2023-04-01T02:44:11;9.67;89.65
52656;SHT85;35474;51.032;6.998;2023-04-01T02:46:39;9.54;90.18
52656;SHT85;35474;51.032;6.998;2023-04-01T02:49:06;9.44;90.48
52656;SHT85;35474;51.032;6.998;2023-04-01T02:51:33;9.49;90.82
52656;SHT85;35474;51.032;6.998;2023-04-01T02:54:00;9.53;90.28
52656;SHT85;35474;51.032;6.998;2023-04-01T02:56:27;9.46;90.44
52656;SHT85;35474;51.032;6.998;2023-04-01T02:58:53;9.42;90.45
52656;SHT85;35474;51.032;6.998;2023-04-01T03:01:20;9.44;90.43
52656;SHT85;35474;51.032;6.998;2023-04-01T03:03:47;9.54;89.96
52656;SHT85;35474;51.032;6.998;2023-04-01T03:06:14;9.50;89.81
52656;SHT85;35474;51.032;6.998;2023-04-01T03:08:41;9.57;89.43
52656;SHT85;35474;51.032;6.998;2023-04-01T03:11:09;9.62;89.11
52656;SHT85;35474;51.032;6.998;2023-04-01T03:13:36;9.62;89.04
52656;SHT85;35474;51.032;6.998;2023-04-01T03:16:02;9.59;89.20
52656;SHT85;35474;51.032;6.998;2023-04-01T03:18:29;9.71;88.76
52656;SHT85;35474;51.032;6.998;2023-04-01T03:20:56;9.69;88.70
52656;SHT85;35474;51.032;6.998;2023-04-01T03:23:22;9.67;88.65
52656;SHT85;35474;51.032;6.998;2023-04-01T03:25:51;9.76;88.09
52656;SHT85;35474;51.032;6.998;2023-04-01T03:28:18;9.76;87.66
52656;SHT85;35474;51.032;6.998;2023-04-01T03:30:44;9.83;87.62
52656;SHT85;35474;51.032;6.998;2023-04-01T03:33:11;9.95;87.19
52656;SHT85;35474;51.032;6.998;2023-04-01T03:35:38;10.02;86.73
52656;SHT85;35474;51.032;6.998;2023-04-01T03:38:04;10.14;85.35
52656;SHT85;35474;51.032;6.998;2023-04-01T03:40:30;10.11;85.90
52656;SHT85;35474;51.032;6.998;2023-04-01T03:42:59;10.10;85.95
52656;SHT85;35474;51.032;6.998;2023-04-01T03:45:25;10.14;85.49
52656;SHT85;35474;51.032;6.998;2023-04-01T03:47:52;10.01;86.84
52656;SHT85;35474;51.032;6.998;2023-04-01T03:50:19;10.00;86.49
52656;SHT85;35474;51.032;6.998;2023-04-01T03:52:45;10.05;86.65
52656;SHT85;35474;51.032;6.998;2023-04-01T03:55:12;10.10;86.44
52656;SHT85;35474;51.032;6.998;2023-04-01T03:57:39;10.04;86.88
52656;SHT85;35474;51.032;6.998;2023-04-01T04:00:06;9.98;87.28
52656;SHT85;35474;51.032;6.998;2023-04-01T04:02:34;9.95;87.58
52656;SHT85;35474;51.032;6.998;2023-04-01T04:05:01;9.95;87.24
52656;SHT85;35474;51.032;6.998;2023-04-01T04:07:28;9.95;87.73
52656;SHT85;35474;51.032;6.998;2023-04-01T04:09:54;9.97;87.63
52656;SHT85;35474;51.032;6.998;2023-04-01T04:12:22;10.01;87.80
52656;SHT85;35474;51.032;6.998;2023-04-01T04:14:48;9.97;88.16
52656;SHT85;35474;51.032;6.998;2023-04-01T04:17:14;10.00;88.02
52656;SHT85;35474;51.032;6.998;2023-04-01T04:19:42;10.05;87.52
52656;SHT85;35474;51.032;6.998;2023-04-01T04:22:09;10.07;86.67
52656;SHT85;35474;51.032;6.998;2023-04-01T04:24:36;9.97;87.85
52656;SHT85;35474;51.032;6.998;2023-04-01T04:27:03;9.89;88.65
52656;SHT85;35474;51.032;6.998;2023-04-01T04:29:30;9.86;89.25
52656;SHT85;35474;51.032;6.998;2023-04-01T04:31:56;9.84;89.51
52656;SHT85;35474;51.032;6.998;2023-04-01T04:34:23;9.91;88.75
52656;SHT85;35474;51.032;6.998;2023-04-01T04:36:49;9.89;89.27
52656;SHT85;35474;51.032;6.998;2023-04-01T04:39:16;9.87;89.13
52656;SHT85;35474;51.032;6.998;2023-04-01T04:41:42;9.90;88.18
52656;SHT85;35474;51.032;6.998;2023-04-01T04:44:09;9.86;88.55
52656;SHT85;35474;51.032;6.998;2023-04-01T04:46:36;9.89;89.14
52656;SHT85;35474;51.032;6.998;2023-04-01T04:49:04;9.84;90.02
52656;SHT85;35474;51.032;6.998;2023-04-01T04:51:32;9.84;90.21
52656;SHT85;35474;51.032;6.998;2023-04-01T04:54:04;9.86;90.40
52656;SHT85;35474;51.032;6.998;2023-04-01T04:56:31;9.83;90.17
52656;SHT85;35474;51.032;6.998;2023-04-01T04:58:58;9.81;89.95
52656;SHT85;35474;51.032;6.998;2023-04-01T05:01:25;9.80;90.58
52656;SHT85;35474;51.032;6.998;2023-04-01T05:03:52;9.84;90.27
52656;SHT85;35474;51.032;6.998;2023-04-01T05:06:19;9.83;90.19
52656;SHT85;35474;51.032;6.998;2023-04-01T05:08:48;9.83;90.30
52656;SHT85;35474;51.032;6.998;2023-04-01T05:11:15;9.79;90.43
52656;SHT85;35474;51.032;6.998;2023-04-01T05:13:43;9.81;90.41
52656;SHT85;35474;51.032;6.998;2023-04-01T05:16:14;9.77;90.84
52656;SHT85;35474;51.032;6.998;2023-04-01T05:18:43;9.84;90.63
52656;SHT85;35474;51.032;6.998;2023-04-01T05:21:11;9.77;90.67
52656;SHT85;35474;51.032;6.998;2023-04-01T05:23:39;9.74;90.96
52656;SHT85;35474;51.032;6.998;2023-04-01T05:26:06;9.79;91.31
52656;SHT85;35474;51.032;6.998;2023-04-01T05:28:34;9.70;91.67
52656;SHT85;35474;51.032;6.998;2023-04-01T05:31:01;9.73;91.80
52656;SHT85;35474;51.032;6.998;2023-04-01T05:33:29;9.77;91.82
52656;SHT85;35474;51.032;6.998;2023-04-01T05:35:56;9.73;91.56
52656;SHT85;35474;51.032;6.998;2023-04-01T05:38:31;9.70;91.69
52656;SHT85;35474;51.032;6.998;2023-04-01T05:41:01;9.73;91.83
52656;SHT85;35474;51.032;6.998;2023-04-01T05:43:28;9.73;91.86
52656;SHT85;35474;51.032;6.998;2023-04-01T05:45:56;9.74;91.97
52656;SHT85;35474;51.032;6.998;2023-04-01T05:48:23;9.69;92.08
52656;SHT85;35474;51.032;6.998;2023-04-01T05:50:49;9.69;92.46
52656;SHT85;35474;51.032;6.998;2023-04-01T05:53:16;9.69;92.89
52656;SHT85;35474;51.032;6.998;2023-04-01T05:55:42;9.63;93.12
52656;SHT85;35474;51.032;6.998;2023-04-01T05:58:09;9.63;93.36
52656;SHT85;35474;51.032;6.998;2023-04-01T06:00:35;9.59;93.25
52656;SHT85;35474;51.032;6.998;2023-04-01T06:03:02;9.63;93.46
52656;SHT85;35474;51.032;6.998;2023-04-01T06:05:38;9.62;93.71
52656;SHT85;35474;51.032;6.998;2023-04-01T06:08:11;9.62;93.96
52656;SHT85;35474;51.032;6.998;2023-04-01T06:11:07;9.59;93.73
52656;SHT85;35474;51.032;6.998;2023-04-01T06:16:52;9.60;93.07
52656;SHT85;35474;51.032;6.998;2023-04-01T06:25:05;9.76;91.92
52656;SHT85;35474;51.032;6.998;2023-04-01T06:35:17;9.83;92.26
52656;SHT85;35474;51.032;6.998;2023-04-01T06:38:05;9.86;92.26
52656;SHT85;35474;51.032;6.998;2023-04-01T06:45:52;9.93;91.50
52656;SHT85;35474;51.032;6.998;2023-04-01T06:51:17;9.93;91.25
52656;SHT85;35474;51.032;6.998;2023-04-01T06:56:31;9.87;91.47
52656;SHT85;35474;51.032;6.998;2023-04-01T06:59:00;9.91;90.93
52656;SHT85;35474;51.032;6.998;2023-04-01T07:01:35;9.97;91.23
52656;SHT85;35474;51.032;6.998;2023-04-01T07:04:11;9.95;90.82
52656;SHT85;35474;51.032;6.998;2023-04-01T07:09:27;9.93;90.54
52656;SHT85;35474;51.032;6.998;2023-04-01T07:12:12;9.87;91.36
52656;SHT85;35474;51.032;6.998;2023-04-01T07:14:47;9.84;92.00
52656;SHT85;35474;51.032;6.998;2023-04-01T07:17:17;9.74;92.62
52656;SHT85;35474;51.032;6.998;2023-04-01T07:22:43;9.67;93.46
52656;SHT85;35474;51.032;6.998;2023-04-01T07:25:24;9.69;93.69
52656;SHT85;35474;51.032;6.998;2023-04-01T07:27:59;9.66;93.50
52656;SHT85;35474;51.032;6.998;2023-04-01T07:30:35;9.69;93.54
52656;SHT85;35474;51.032;6.998;2023-04-01T07:33:33;9.67;93.67
52656;SHT85;35474;51.032;6.998;2023-04-01T07:36:13;9.64;93.85
52656;SHT85;35474;51.032;6.998;2023-04-01T07:38:59;9.73;93.99
52656;SHT85;35474;51.032;6.998;2023-04-01T07:41:51;9.70;94.21
52656;SHT85;35474;51.032;6.998;2023-04-01T07:44:37;9.69;94.12
52656;SHT85;35474;51.032;6.998;2023-04-01T07:47:18;9.67;94.31
52656;SHT85;35474;51.032;6.998;2023-04-01T07:52:42;9.70;93.96
52656;SHT85;35474;51.032;6.998;2023-04-01T07:55:30;9.69;93.88
52656;SHT85;35474;51.032;6.998;2023-04-01T08:03:48;9.69;94.05
52656;SHT85;35474;51.032;6.998;2023-04-01T08:06:32;9.67;94.26
52656;SHT85;35474;51.032;6.998;2023-04-01T08:09:29;9.71;94.54
52656;SHT85;35474;51.032;6.998;2023-04-01T08:12:08;9.74;94.86
52656;SHT85;35474;51.032;6.998;2023-04-01T08:22:50;9.56;95.00
52656;SHT85;35474;51.032;6.998;2023-04-01T08:25:24;9.56;95.18
52656;SHT85;35474;51.032;6.998;2023-04-01T08:27:56;9.53;95.30
52656;SHT85;35474;51.032;6.998;2023-04-01T08:30:35;9.54;95.38
52656;SHT85;35474;51.032;6.998;2023-04-01T08:33:11;9.57;95.53
52656;SHT85;35474;51.032;6.998;2023-04-01T08:38:26;9.57;95.70
52656;SHT85;35474;51.032;6.998;2023-04-01T08:40:59;9.69;95.89
52656;SHT85;35474;51.032;6.998;2023-04-01T08:46:46;9.54;95.78
52656;SHT85;35474;51.032;6.998;2023-04-01T08:52:34;9.74;95.78
52656;SHT85;35474;51.032;6.998;2023-04-01T09:00:49;9.73;95.02
52656;SHT85;35474;51.032;6.998;2023-04-01T09:09:23;9.79;95.31
52656;SHT85;35474;51.032;6.998;2023-04-01T09:23:14;9.95;93.33
52656;SHT85;35474;51.032;6.998;2023-04-01T09:28:28;10.05;92.69
52656;SHT85;35474;51.032;6.998;2023-04-01T09:31:08;10.18;92.67
52656;SHT85;35474;51.032;6.998;2023-04-01T09:36:46;10.04;92.20
52656;SHT85;35474;51.032;6.998;2023-04-01T09:39:35;10.12;92.21
52656;SHT85;35474;51.032;6.998;2023-04-01T09:49:55;10.12;92.04
52656;SHT85;35474;51.032;6.998;2023-04-01T09:52:38;10.15;92.11
52656;SHT85;35474;51.032;6.998;2023-04-01T10:10:10;10.15;91.87
52656;SHT85;35474;51.032;6.998;2023-04-01T10:19:39;10.04;92.01
52656;SHT85;35474;51.032;6.998;2023-04-01T10:25:31;10.07;92.06
52656;SHT85;35474;51.032;6.998;2023-04-01T10:33:56;10.12;92.07
52656;SHT85;35474;51.032;6.998;2023-04-01T10:51:04;10.11;92.41
52656;SHT85;35474;51.032;6.998;2023-04-01T11:00:11;10.10;92.84
52656;SHT85;35474;51.032;6.998;2023-04-01T11:10:54;10.08;92.44
52656;SHT85;35474;51.032;6.998;2023-04-01T11:33:14;10.22;91.29
52656;SHT85;35474;51.032;6.998;2023-04-01T11:47:17;10.55;89.95
52656;SHT85;35474;51.032;6.998;2023-04-01T11:50:11;10.65;89.27
52656;SHT85;35474;51.032;6.998;2023-04-01T11:52:52;10.73;89.70
52656;SHT85;35474;51.032;6.998;2023-04-01T11:55:31;10.76;89.34
52656;SHT85;35474;51.032;6.998;2023-04-01T11:58:27;10.83;88.26
52656;SHT85;35474;51.032;6.998;2023-04-01T12:01:23;10.89;87.16
52656;SHT85;35474;51.032;6.998;2023-04-01T12:09:43;11.20;87.00
52656;SHT85;35474;51.032;6.998;2023-04-01T12:32:23;11.27;86.37
52656;SHT85;35474;51.032;6.998;2023-04-01T12:45:57;11.13;86.09
52656;SHT85;35474;51.032;6.998;2023-04-01T12:48:37;11.16;86.07
52656;SHT85;35474;51.032;6.998;2023-04-01T12:51:24;11.18;86.43
52656;SHT85;35474;51.032;6.998;2023-04-01T13:08:14;11.04;86.73
52656;SHT85;35474;51.032;6.998;2023-04-01T13:21:40;10.86;89.03
52656;SHT85;35474;51.032;6.998;2023-04-01T13:29:40;10.86;89.58
52656;SHT85;35474;51.032;6.998;2023-04-01T13:35:11;10.83;90.47
52656;SHT85;35474;51.032;6.998;2023-04-01T13:43:39;10.58;91.67
52656;SHT85;35474;51.032;6.998;2023-04-01T13:49:23;10.46;93.26
52656;SHT85;35474;51.032;6.998;2023-04-01T13:55:35;10.37;93.21
52656;SHT85;35474;51.032;6.998;2023-04-01T13:57:52;10.42;93.62
52656;SHT85;35474;51.032;6.998;2023-04-01T14:03:27;10.50;94.11
52656;SHT85;35474;51.032;6.998;2023-04-01T14:14:58;10.52;93.50
52656;SHT85;35474;51.032;6.998;2023-04-01T14:17:54;10.50;93.44
52656;SHT85;35474;51.032;6.998;2023-04-01T14:34:59;10.49;93.14
52656;SHT85;35474;51.032;6.998;2023-04-01T14:43:34;10.44;93.67
52656;SHT85;35474;51.032;6.998;2023-04-01T14:46:22;10.44;93.59
52656;SHT85;35474;51.032;6.998;2023-04-01T14:49:05;10.42;93.44
52656;SHT85;35474;51.032;6.998;2023-04-01T14:51:43;10.45;93.59
52656;SHT85;35474;51.032;6.998;2023-04-01T14:57:13;10.38;94.09
52656;SHT85;35474;51.032;6.998;2023-04-01T14:59:48;10.41;94.44
52656;SHT85;35474;51.032;6.998;2023-04-01T15:02:28;10.33;94.64
52656;SHT85;35474;51.032;6.998;2023-04-01T15:08:07;10.31;94.11
52656;SHT85;35474;51.032;6.998;2023-04-01T15:10:43;10.38;94.28
52656;SHT85;35474;51.032;6.998;2023-04-01T15:13:53;10.35;94.12
52656;SHT85;35474;51.032;6.998;2023-04-01T15:19:10;10.35;93.41
52656;SHT85;35474;51.032;6.998;2023-04-01T15:33:20;10.37;93.01
52656;SHT85;35474;51.032;6.998;2023-04-01T15:39:11;10.50;93.22
52656;SHT85;35474;51.032;6.998;2023-04-01T15:47:42;10.59;91.92
52656;SHT85;35474;51.032;6.998;2023-04-01T15:55:50;10.70;91.17
52656;SHT85;35474;51.032;6.998;2023-04-01T16:03:48;10.69;91.64
52656;SHT85;35474;51.032;6.998;2023-04-01T16:11:54;10.59;90.72
52656;SHT85;35474;51.032;6.998;2023-04-01T16:17:11;10.56;90.88
52656;SHT85;35474;51.032;6.998;2023-04-01T16:19:55;10.48;90.98
52656;SHT85;35474;51.032;6.998;2023-04-01T16:25:40;10.41;92.22
52656;SHT85;35474;51.032;6.998;2023-04-01T16:39:10;10.21;93.74
52656;SHT85;35474;51.032;6.998;2023-04-01T16:47:39;10.15;93.85
52656;SHT85;35474;51.032;6.998;2023-04-01T16:50:23;10.17;94.33
52656;SHT85;35474;51.032;6.998;2023-04-01T16:55:18;10.14;94.87
52656;SHT85;35474;51.032;6.998;2023-04-01T16:57:51;10.10;95.14
52656;SHT85;35474;51.032;6.998;2023-04-01T17:00:37;10.02;95.36
52656;SHT85;35474;51.032;6.998;2023-04-01T17:05:36;10.00;95.24
52656;SHT85;35474;51.032;6.998;2023-04-01T17:08:14;10.00;95.17
52656;SHT85;35474;51.032;6.998;2023-04-01T17:28:35;9.89;95.77
52656;SHT85;35474;51.032;6.998;2023-04-01T17:36:50;9.89;96.24
52656;SHT85;35474;51.032;6.998;2023-04-01T17:39:35;9.87;96.38
52656;SHT85;35474;51.032;6.998;2023-04-01T17:44:39;9.84;96.21
52656;SHT85;35474;51.032;6.998;2023-04-01T17:47:29;9.86;96.28
52656;SHT85;35474;51.032;6.998;2023-04-01T17:50:20;9.80;96.24
52656;SHT85;35474;51.032;6.998;2023-04-01T17:57:51;9.83;96.08
52656;SHT85;35474;51.032;6.998;2023-04-01T18:03:36;9.81;96.07
52656;SHT85;35474;51.032;6.998;2023-04-01T18:06:10;9.79;96.22
52656;SHT85;35474;51.032;6.998;2023-04-01T18:09:08;9.83;96.38
52656;SHT85;35474;51.032;6.998;2023-04-01T18:17:40;9.79;96.69
52656;SHT85;35474;51.032;6.998;2023-04-01T18:20:30;9.73;96.70
52656;SHT85;35474;51.032;6.998;2023-04-01T18:23:49;9.70;96.57
52656;SHT85;35474;51.032;6.998;2023-04-01T18:26:20;9.71;96.62
52656;SHT85;35474;51.032;6.998;2023-04-01T18:31:23;9.63;96.46
52656;SHT85;35474;51.032;6.998;2023-04-01T18:39:17;9.60;96.54
52656;SHT85;35474;51.032;6.998;2023-04-01T18:42:03;9.62;96.59
52656;SHT85;35474;51.032;6.998;2023-04-01T18:44:51;9.56;96.51
52656;SHT85;35474;51.032;6.998;2023-04-01T18:56:02;9.50;96.46
52656;SHT85;35474;51.032;6.998;2023-04-01T18:58:34;9.47;96.53
52656;SHT85;35474;51.032;6.998;2023-04-01T19:06:42;9.49;96.46
52656;SHT85;35474;51.032;6.998;2023-04-01T19:09:18;9.47;96.56
52656;SHT85;35474;51.032;6.998;2023-04-01T19:17:16;9.40;96.52
52656;SHT85;35474;51.032;6.998;2023-04-01T19:25:54;9.38;96.45
52656;SHT85;35474;51.032;6.998;2023-04-01T19:34:23;9.44;96.67
52656;SHT85;35474;51.032;6.998;2023-04-01T19:37:32;9.42;96.66
52656;SHT85;35474;51.032;6.998;2023-04-01T19:40:16;9.32;96.57
52656;SHT85;35474;51.032;6.998;2023-04-01T19:45:32;9.33;96.43
52656;SHT85;35474;51.032;6.998;2023-04-01T19:48:13;9.32;96.35
52656;SHT85;35474;51.032;6.998;2023-04-01T19:51:00;9.31;96.40
52656;SHT85;35474;51.032;6.998;2023-04-01T19:53:55;9.32;96.49
52656;SHT85;35474;51.032;6.998;2023-04-01T19:56:42;9.33;96.60
52656;SHT85;35474;51.032;6.998;2023-04-01T19:59:19;9.32;96.81
52656;SHT85;35474;51.032;6.998;2023-04-01T20:04:42;9.25;96.99
52656;SHT85;35474;51.032;6.998;2023-04-01T20:07:34;9.19;96.94
52656;SHT85;35474;51.032;6.998;2023-04-01T20:10:09;9.19;96.91
52656;SHT85;35474;51.032;6.998;2023-04-01T20:15:36;9.18;97.05
52656;SHT85;35474;51.032;6.998;2023-04-01T20:18:12;9.21;97.14
52656;SHT85;35474;51.032;6.998;2023-04-01T20:20:51;9.18;97.27
52656;SHT85;35474;51.032;6.998;2023-04-01T20:26:21;9.21;97.34
52656;SHT85;35474;51.032;6.998;2023-04-01T20:29:04;9.12;97.41
52656;SHT85;35474;51.032;6.998;2023-04-01T20:31:44;9.10;97.42
52656;SHT85;35474;51.032;6.998;2023-04-01T20:51:23;9.11;97.71
52656;SHT85;35474;51.032;6.998;2023-04-01T20:57:24;9.11;97.71
52656;SHT85;35474;51.032;6.998;2023-04-01T21:10:26;9.10;97.85
52656;SHT85;35474;51.032;6.998;2023-04-01T21:16:19;9.12;97.80
52656;SHT85;35474;51.032;6.998;2023-04-01T21:19:00;9.10;97.79
52656;SHT85;35474;51.032;6.998;2023-04-01T21:24:58;9.08;97.75
52656;SHT85;35474;51.032;6.998;2023-04-01T21:36:25;9.15;97.81
52656;SHT85;35474;51.032;6.998;2023-04-01T21:47:04;9.12;97.74
52656;SHT85;35474;51.032;6.998;2023-04-01T21:49:59;9.15;97.73
52656;SHT85;35474;51.032;6.998;2023-04-01T21:52:41;9.11;97.66
52656;SHT85;35474;51.032;6.998;2023-04-01T22:01:14;9.26;97.79
52656;SHT85;35474;51.032;6.998;2023-04-01T22:12:54;9.31;97.87
52656;SHT85;35474;51.032;6.998;2023-04-01T22:15:42;9.25;97.78
52656;SHT85;35474;51.032;6.998;2023-04-01T22:21:22;9.46;97.86
52656;SHT85;35474;51.032;6.998;2023-04-01T22:23:58;9.31;97.75
52656;SHT85;35474;51.032;6.998;2023-04-01T22:26:43;9.31;97.77
52656;SHT85;35474;51.032;6.998;2023-04-01T22:30:16;9.49;97.80
52656;SHT85;35474;51.032;6.998;2023-04-01T22:32:34;9.39;97.72
52656;SHT85;35474;51.032;6.998;2023-04-01T22:43:55;9.28;97.75
52656;SHT85;35474;51.032;6.998;2023-04-01T22:46:39;9.26;97.76
52656;SHT85;35474;51.032;6.998;2023-04-01T22:49:23;9.53;97.83
52656;SHT85;35474;51.032;6.998;2023-04-01T22:54:33;9.32;97.83
52656;SHT85;35474;51.032;6.998;2023-04-01T22:57:02;9.33;97.85
52656;SHT85;35474;51.032;6.998;2023-04-01T22:59:37;9.25;97.81
52656;SHT85;35474;51.032;6.998;2023-04-01T23:04:59;9.36;97.83
52656;SHT85;35474;51.032;6.998;2023-04-01T23:10:18;9.35;97.77
52656;SHT85;35474;51.032;6.998;2023-04-01T23:12:51;9.28;97.85
52656;SHT85;35474;51.032;6.998;2023-04-01T23:15:20;9.32;97.90
52656;SHT85;35474;51.032;6.998;2023-04-01T23:17:52;9.47;97.88
52656;SHT85;35474;51.032;6.998;2023-04-01T23:23:26;9.56;97.87
52656;SHT85;35474;51.032;6.998;2023-04-01T23:28:53;9.57;97.95
52656;SHT85;35474;51.032;6.998;2023-04-01T23:31:40;9.59;97.91
52656;SHT85;35474;51.032;6.998;2023-04-01T23:34:28;9.79;97.89
52656;SHT85;35474;51.032;6.998;2023-04-01T23:37:11;9.62;97.77
52656;SHT85;35474;51.032;6.998;2023-04-01T23:39:45;9.59;97.80
52656;SHT85;35474;51.032;6.998;2023-04-01T23:42:24;9.66;97.83
52656;SHT85;35474;51.032;6.998;2023-04-01T23:44:55;9.56;97.79
52656;SHT85;35474;51.032;6.998;2023-04-01T23:47:25;9.56;97.82
52656;SHT85;35474;51.032;6.998;2023-04-01T23:49:56;9.57;97.77
52656;SHT85;35474;51.032;6.998;2023-04-01T23:52:30;9.71;97.84
